createdAt,value
2023-03-27T00:01:56.021Z,99.90
2023-03-27T00:05:22.534Z,99.90
2023-03-27T00:08:45.135Z,99.90
2023-03-27T00:12:06.773Z,99.90
2023-03-27T00:15:28.400Z,99.90
2023-03-27T00:18:50.054Z,99.90
2023-03-27T00:22:13.005Z,99.90
2023-03-27T00:25:34.645Z,99.90
2023-03-27T00:28:56.269Z,99.90
2023-03-27T00:32:18.088Z,99.90
2023-03-27T00:35:44.412Z,99.90
2023-03-27T00:39:07.360Z,99.90
2023-03-27T00:42:28.940Z,99.90
2023-03-27T00:45:52.073Z,99.90
2023-03-27T00:49:14.548Z,99.90
2023-03-27T00:52:36.464Z,99.90
2023-03-27T00:56:01.066Z,99.90
2023-03-27T00:59:25.020Z,99.90
2023-03-27T01:02:48.389Z,99.90
2023-03-27T01:06:10.869Z,99.90
2023-03-27T01:09:32.605Z,99.90
2023-03-27T01:12:59.835Z,99.90
2023-03-27T01:16:24.172Z,99.90
2023-03-27T01:20:04.274Z,99.90
2023-03-27T01:23:59.579Z,99.90
2023-03-27T01:27:29.292Z,99.90
2023-03-27T01:30:55.966Z,99.90
2023-03-27T01:34:27.104Z,99.90
2023-03-27T01:37:56.982Z,99.90
2023-03-27T01:41:23.372Z,99.90
2023-03-27T01:44:47.356Z,99.90
2023-03-27T01:48:11.885Z,99.90
2023-03-27T01:51:35.635Z,99.90
2023-03-27T01:54:58.816Z,99.90
2023-03-27T01:58:23.199Z,99.90
2023-03-27T02:01:48.154Z,99.90
2023-03-27T02:05:12.483Z,99.90
2023-03-27T02:08:35.910Z,99.90
2023-03-27T02:12:00.141Z,99.90
2023-03-27T02:15:25.531Z,99.90
2023-03-27T02:18:51.424Z,99.90
2023-03-27T02:22:13.330Z,99.90
2023-03-27T02:25:36.489Z,99.90
2023-03-27T02:29:06.630Z,99.90
2023-03-27T02:32:34.320Z,99.90
2023-03-27T02:35:58.170Z,99.90
2023-03-27T02:39:22.118Z,99.90
2023-03-27T02:42:52.838Z,99.90
2023-03-27T02:46:16.128Z,99.90
2023-03-27T02:49:40.925Z,99.90
2023-03-27T02:53:03.154Z,99.90
2023-03-27T02:56:25.736Z,99.90
2023-03-27T02:59:50.786Z,99.90
2023-03-27T03:03:13.936Z,99.90
2023-03-27T03:06:37.114Z,99.90
2023-03-27T03:09:58.728Z,99.90
2023-03-27T03:13:20.336Z,99.90
2023-03-27T03:16:42.030Z,99.90
2023-03-27T03:20:03.843Z,99.90
2023-03-27T03:23:27.950Z,99.90
2023-03-27T03:26:50.326Z,99.90
2023-03-27T03:30:16.502Z,99.90
2023-03-27T03:33:38.968Z,99.90
2023-03-27T03:37:00.583Z,99.90
2023-03-27T03:40:23.544Z,99.90
2023-03-27T03:43:45.152Z,99.90
2023-03-27T03:47:06.744Z,99.90
2023-03-27T03:50:29.395Z,99.90
2023-03-27T03:53:51.039Z,99.90
2023-03-27T03:57:14.024Z,99.90
2023-03-27T04:00:36.367Z,99.90
2023-03-27T04:03:58.020Z,99.90
2023-03-27T04:07:19.663Z,99.90
2023-03-27T04:10:41.263Z,99.90
2023-03-27T04:14:04.472Z,99.90
2023-03-27T04:17:26.108Z,99.90
2023-03-27T04:20:47.773Z,99.90
2023-03-27T04:24:09.362Z,99.90
2023-03-27T04:27:30.971Z,99.90
2023-03-27T04:30:53.987Z,99.90
2023-03-27T04:34:15.789Z,99.90
2023-03-27T04:37:39.729Z,99.90
2023-03-27T04:41:01.322Z,99.90
2023-03-27T04:44:22.919Z,99.90
2023-03-27T04:47:45.951Z,99.90
2023-03-27T04:51:07.679Z,99.90
2023-03-27T04:54:29.288Z,99.90
2023-03-27T04:57:50.877Z,99.90
2023-03-27T05:01:12.515Z,99.90
2023-03-27T05:04:35.489Z,99.90
2023-03-27T05:07:57.164Z,99.90
2023-03-27T05:11:18.770Z,99.90
2023-03-27T05:14:40.389Z,99.90
2023-03-27T05:18:02.066Z,99.90
2023-03-27T05:21:25.037Z,99.90
2023-03-27T05:24:46.673Z,99.90
2023-03-27T05:28:08.276Z,99.90
2023-03-27T05:31:31.862Z,99.90
2023-03-27T05:34:53.835Z,99.90
2023-03-27T05:38:16.826Z,99.90
2023-03-27T05:41:38.447Z,99.90
2023-03-27T05:45:00.111Z,99.90
2023-03-27T05:48:21.742Z,99.90
2023-03-27T05:51:46.850Z,99.90
2023-03-27T05:55:10.937Z,99.90
2023-03-27T05:58:32.533Z,99.90
2023-03-27T06:01:54.134Z,99.90
2023-03-27T06:05:15.924Z,99.90
2023-03-27T06:08:37.975Z,99.90
2023-03-27T06:12:00.956Z,99.90
2023-03-27T06:15:22.536Z,99.90
2023-03-27T06:18:44.136Z,99.90
2023-03-27T06:22:05.752Z,99.90
2023-03-27T06:25:28.637Z,99.90
2023-03-27T06:28:51.654Z,99.90
2023-03-27T06:32:13.295Z,99.90
2023-03-27T06:35:35.202Z,99.90
2023-03-27T06:38:56.850Z,99.90
2023-03-27T06:42:18.461Z,99.90
2023-03-27T06:45:43.497Z,99.90
2023-03-27T06:49:05.099Z,99.90
2023-03-27T06:52:26.726Z,99.90
2023-03-27T06:55:48.878Z,99.90
2023-03-27T06:59:10.497Z,99.90
2023-03-27T07:02:33.471Z,99.90
2023-03-27T07:05:55.408Z,99.90
2023-03-27T07:09:17.290Z,99.90
2023-03-27T07:12:39.216Z,99.90
2023-03-27T07:16:00.872Z,99.90
2023-03-27T07:19:23.857Z,99.90
2023-03-27T07:22:45.452Z,99.90
2023-03-27T07:26:07.149Z,99.90
2023-03-27T07:29:28.741Z,99.90
2023-03-27T07:32:50.415Z,99.90
2023-03-27T07:36:13.917Z,99.90
2023-03-27T07:39:35.520Z,99.90
2023-03-27T07:42:57.165Z,99.90
2023-03-27T07:46:18.917Z,99.90
2023-03-27T07:49:40.651Z,99.90
2023-03-27T07:53:03.880Z,99.90
2023-03-27T07:56:25.516Z,99.90
2023-03-27T07:59:47.133Z,99.90
2023-03-27T08:03:09.722Z,99.90
2023-03-27T08:06:31.538Z,99.90
2023-03-27T08:09:54.489Z,99.90
2023-03-27T08:13:16.159Z,99.90
2023-03-27T08:16:37.865Z,99.90
2023-03-27T08:19:59.628Z,99.90
2023-03-27T08:23:21.330Z,99.90
2023-03-27T08:26:44.280Z,99.90
2023-03-27T08:30:06.626Z,99.90
2023-03-27T08:33:28.406Z,99.90
2023-03-27T08:36:49.992Z,99.90
2023-03-27T08:40:16.684Z,99.90
2023-03-27T08:43:41.153Z,99.90
2023-03-27T08:47:04.686Z,99.90
2023-03-27T08:50:31.488Z,99.90
2023-03-27T08:53:56.165Z,99.90
2023-03-27T08:57:19.035Z,99.90
2023-03-27T09:00:43.417Z,99.90
2023-03-27T09:04:09.535Z,99.10
2023-03-27T09:07:34.244Z,96.30
2023-03-27T09:11:00.304Z,95.10
2023-03-27T09:14:26.685Z,96.20
2023-03-27T09:17:51.626Z,96.10
2023-03-27T09:21:14.733Z,96.20
2023-03-27T09:24:39.159Z,96.30
2023-03-27T09:28:01.241Z,95.10
2023-03-27T09:31:25.002Z,92.80
2023-03-27T09:34:47.985Z,94.70
2023-03-27T09:38:17.452Z,95.60
2023-03-27T09:41:40.647Z,95.10
2023-03-27T09:45:03.826Z,95.30
2023-03-27T09:48:28.132Z,94.60
2023-03-27T09:51:51.868Z,93.50
2023-03-27T09:55:23.874Z,93.80
2023-03-27T09:58:46.659Z,95.70
2023-03-27T10:02:10.592Z,94.10
2023-03-27T10:05:32.384Z,92.30
2023-03-27T10:08:56.561Z,91.60
2023-03-27T10:12:19.261Z,90.60
2023-03-27T10:15:41.085Z,91.70
2023-03-27T10:19:02.677Z,90.70
2023-03-27T10:22:27.301Z,90.20
2023-03-27T10:25:50.914Z,91.10
2023-03-27T10:29:21.559Z,88.80
2023-03-27T10:32:44.012Z,88.70
2023-03-27T10:36:07.590Z,89.30
2023-03-27T10:39:32.580Z,90.30
2023-03-27T10:42:57.174Z,86.30
2023-03-27T10:46:20.177Z,88.90
2023-03-27T10:49:43.573Z,91.60
2023-03-27T10:53:08.891Z,90.40
2023-03-27T10:56:33.538Z,90.70
2023-03-27T10:59:58.803Z,89.40
2023-03-27T11:03:23.511Z,83.60
2023-03-27T11:06:46.464Z,87.00
2023-03-27T11:10:12.785Z,89.00
2023-03-27T11:13:36.412Z,90.70
2023-03-27T11:17:00.288Z,84.10
2023-03-27T11:20:26.314Z,84.10
2023-03-27T11:23:49.352Z,86.40
2023-03-27T11:27:14.698Z,90.20
2023-03-27T11:30:41.327Z,89.30
2023-03-27T11:34:06.372Z,87.70
2023-03-27T11:37:33.893Z,91.90
2023-03-27T11:40:55.759Z,87.40
2023-03-27T11:44:17.544Z,84.40
2023-03-27T11:47:56.839Z,84.90
2023-03-27T11:51:24.672Z,86.00
2023-03-27T11:54:50.800Z,82.80
2023-03-27T11:58:17.863Z,83.80
2023-03-27T12:01:43.376Z,83.60
2023-03-27T12:05:08.379Z,84.90
2023-03-27T12:08:36.156Z,87.40
2023-03-27T12:12:02.909Z,86.30
2023-03-27T12:15:42.387Z,86.40
2023-03-27T12:19:26.814Z,87.00
2023-03-27T12:22:54.067Z,90.60
2023-03-27T12:26:30.247Z,90.20
2023-03-27T12:29:58.771Z,87.00
2023-03-27T12:33:28.838Z,82.70
2023-03-27T12:36:50.587Z,85.90
2023-03-27T12:40:25.954Z,82.70
2023-03-27T12:43:53.435Z,83.70
2023-03-27T12:47:16.935Z,82.60
2023-03-27T12:50:40.797Z,81.60
2023-03-27T12:54:12.855Z,80.50
2023-03-27T12:57:41.746Z,83.30
2023-03-27T13:01:06.170Z,83.60
2023-03-27T13:04:43.417Z,84.50
2023-03-27T13:08:22.072Z,83.20
2023-03-27T13:12:00.141Z,83.10
2023-03-27T13:15:26.138Z,83.60
2023-03-27T13:18:54.868Z,85.70
2023-03-27T13:22:24.227Z,86.00
2023-03-27T13:25:53.982Z,85.60
2023-03-27T13:29:16.708Z,85.20
2023-03-27T13:32:39.124Z,88.10
2023-03-27T13:36:08.156Z,85.90
2023-03-27T13:39:38.537Z,86.70
2023-03-27T13:43:16.308Z,86.50
2023-03-27T13:46:38.445Z,86.20
2023-03-27T13:50:15.039Z,90.60
2023-03-27T13:53:42.814Z,87.90
2023-03-27T13:57:10.400Z,84.20
2023-03-27T14:00:47.229Z,87.60
2023-03-27T14:04:23.728Z,90.30
2023-03-27T14:07:53.505Z,95.40
2023-03-27T14:11:31.574Z,99.50
2023-03-27T14:15:06.969Z,99.90
2023-03-27T14:18:46.185Z,99.90
2023-03-27T14:22:09.986Z,99.90
2023-03-27T14:25:34.972Z,99.90
2023-03-27T14:29:00.869Z,99.90
2023-03-27T14:32:22.549Z,99.90
2023-03-27T14:35:44.518Z,99.90
2023-03-27T14:39:06.642Z,99.90
2023-03-27T14:42:32.054Z,99.90
2023-03-27T14:45:58.274Z,99.90
2023-03-27T14:49:24.686Z,99.90
2023-03-27T14:52:50.329Z,99.90
2023-03-27T14:56:19.078Z,99.90
2023-03-27T14:59:41.949Z,99.90
2023-03-27T15:03:07.140Z,99.90
2023-03-27T15:06:28.975Z,99.90
2023-03-27T15:09:59.632Z,99.90
2023-03-27T15:13:23.712Z,99.90
2023-03-27T15:16:48.046Z,99.90
2023-03-27T15:20:11.411Z,99.90
2023-03-27T15:23:35.938Z,99.90
2023-03-27T15:27:00.178Z,99.90
2023-03-27T15:30:25.863Z,99.90
2023-03-27T15:33:52.255Z,99.90
2023-03-27T15:37:17.132Z,99.90
2023-03-27T15:40:42.394Z,99.90
2023-03-27T15:44:06.028Z,99.90
2023-03-27T15:47:29.936Z,99.90
2023-03-27T15:50:57.331Z,99.90
2023-03-27T15:54:27.254Z,99.90
2023-03-27T15:57:51.413Z,99.90
2023-03-27T16:01:19.732Z,99.90
2023-03-27T16:04:46.563Z,99.90
2023-03-27T16:08:08.676Z,99.90
2023-03-27T16:11:37.186Z,99.90
2023-03-27T16:14:59.456Z,99.90
2023-03-27T16:18:26.541Z,99.90
2023-03-27T16:21:55.704Z,99.90
2023-03-27T16:25:17.702Z,99.90
2023-03-27T16:28:41.098Z,99.90
2023-03-27T16:32:04.670Z,99.90
2023-03-27T16:35:27.754Z,99.90
2023-03-27T16:38:50.456Z,99.90
2023-03-27T16:42:13.178Z,99.90
2023-03-27T16:45:36.916Z,99.90
2023-03-27T16:48:58.703Z,99.90
2023-03-27T16:52:20.275Z,99.90
2023-03-27T16:55:42.063Z,99.90
2023-03-27T16:59:03.634Z,99.90
2023-03-27T17:02:26.860Z,99.90
2023-03-27T17:05:48.538Z,99.90
2023-03-27T17:09:10.286Z,99.90
2023-03-27T17:12:31.941Z,99.90
2023-03-27T17:15:53.794Z,99.90
2023-03-27T17:19:16.775Z,99.90
2023-03-27T17:22:38.506Z,99.90
2023-03-27T17:26:00.292Z,99.90
2023-03-27T17:29:21.917Z,99.90
2023-03-27T17:32:43.566Z,99.90
2023-03-27T17:36:11.300Z,99.90
2023-03-27T17:39:32.958Z,99.90
2023-03-27T17:42:54.556Z,99.90
2023-03-27T17:46:16.196Z,99.90
2023-03-27T17:49:37.895Z,99.90
2023-03-27T17:53:00.915Z,99.90
2023-03-27T17:56:22.622Z,99.90
2023-03-27T17:59:44.209Z,99.90
2023-03-27T18:03:05.868Z,99.90
2023-03-27T18:06:28.007Z,99.90
2023-03-27T18:09:51.079Z,99.90
2023-03-27T18:13:12.693Z,99.90
2023-03-27T18:16:35.155Z,99.90
2023-03-27T18:19:57.368Z,99.90
2023-03-27T18:23:19.177Z,99.90
2023-03-27T18:26:42.514Z,99.90
2023-03-27T18:30:04.506Z,99.90
2023-03-27T18:33:26.485Z,99.90
2023-03-27T18:36:48.262Z,99.90
2023-03-27T18:40:11.241Z,99.90
2023-03-27T18:43:34.257Z,99.90
2023-03-27T18:46:55.835Z,99.90
2023-03-27T18:50:20.774Z,99.90
2023-03-27T18:53:43.384Z,99.90
2023-03-27T18:57:05.433Z,99.90
2023-03-27T19:00:28.507Z,99.90
2023-03-27T19:03:51.703Z,99.90
2023-03-27T19:07:14.039Z,99.90
2023-03-27T19:10:35.906Z,99.90
2023-03-27T19:13:57.732Z,99.90
2023-03-27T19:17:20.759Z,99.90
2023-03-27T19:20:42.464Z,99.90
2023-03-27T19:24:05.127Z,99.90
2023-03-27T19:27:43.848Z,99.90
2023-03-27T19:31:10.437Z,99.90
2023-03-27T19:34:42.542Z,99.90
2023-03-27T19:38:07.114Z,99.90
2023-03-27T19:41:30.012Z,99.90
2023-03-27T19:44:51.704Z,99.90
2023-03-27T19:48:13.432Z,99.90
2023-03-27T19:51:39.906Z,99.90
2023-03-27T19:55:01.855Z,99.90
2023-03-27T19:58:23.465Z,99.90
2023-03-27T20:01:48.397Z,99.90
2023-03-27T20:05:10.337Z,99.90
2023-03-27T20:08:33.934Z,99.90
2023-03-27T20:11:55.917Z,99.90
2023-03-27T20:15:17.542Z,99.90
2023-03-27T20:18:49.391Z,99.90
2023-03-27T20:22:12.226Z,99.90
2023-03-27T20:25:40.839Z,99.90
2023-03-27T20:29:09.398Z,99.90
2023-03-27T20:32:33.792Z,99.90
2023-03-27T20:36:01.488Z,99.90
2023-03-27T20:39:28.845Z,99.90
2023-03-27T20:42:51.793Z,99.90
2023-03-27T20:46:14.025Z,99.90
2023-03-27T20:49:41.190Z,99.90
2023-03-27T20:53:03.313Z,99.90
2023-03-27T20:56:24.920Z,99.90
2023-03-27T20:59:47.917Z,99.90
2023-03-27T21:03:10.617Z,99.90
2023-03-27T21:06:32.483Z,99.90
2023-03-27T21:09:54.096Z,99.90
2023-03-27T21:13:15.706Z,99.90
2023-03-27T21:16:38.681Z,99.90
2023-03-27T21:20:00.304Z,99.90
2023-03-27T21:23:21.965Z,99.90
2023-03-27T21:26:43.567Z,99.90
2023-03-27T21:30:05.922Z,99.90
2023-03-27T21:33:28.882Z,99.90
2023-03-27T21:36:50.543Z,99.90
2023-03-27T21:40:12.529Z,99.90
2023-03-27T21:43:34.110Z,99.90
2023-03-27T21:46:55.715Z,99.90
2023-03-27T21:50:18.892Z,99.90
2023-03-27T21:53:40.498Z,99.90
2023-03-27T21:57:02.151Z,99.90
2023-03-27T22:00:23.774Z,99.90
2023-03-27T22:03:45.405Z,99.90
2023-03-27T22:07:08.394Z,99.90
2023-03-27T22:10:29.996Z,99.90
2023-03-27T22:13:51.616Z,99.90
2023-03-27T22:17:13.278Z,99.90
2023-03-27T22:20:34.858Z,99.90
2023-03-27T22:23:58.435Z,99.90
2023-03-27T22:27:20.083Z,99.90
2023-03-27T22:30:41.713Z,99.90
2023-03-27T22:34:03.699Z,99.90
2023-03-27T22:37:25.412Z,99.90
2023-03-27T22:40:48.340Z,99.90
2023-03-27T22:44:11.049Z,99.90
2023-03-27T22:47:36.466Z,99.90
2023-03-27T22:50:59.427Z,99.90
2023-03-27T22:54:21.172Z,99.90
2023-03-27T22:57:44.703Z,99.90
2023-03-27T23:01:06.806Z,99.90
2023-03-27T23:04:30.418Z,99.90
2023-03-27T23:07:52.109Z,99.90
2023-03-27T23:11:14.004Z,99.90
2023-03-27T23:14:36.994Z,99.90
2023-03-27T23:17:58.625Z,99.90
2023-03-27T23:21:20.279Z,99.90
2023-03-27T23:24:41.855Z,99.90
2023-03-27T23:28:03.575Z,99.90
2023-03-27T23:31:26.577Z,99.90
2023-03-27T23:34:48.335Z,99.90
2023-03-27T23:38:10.090Z,99.90
2023-03-27T23:41:31.686Z,99.90
2023-03-27T23:44:53.296Z,99.90
2023-03-27T23:48:16.494Z,99.90
2023-03-27T23:51:38.109Z,99.90
2023-03-27T23:54:59.706Z,99.90
2023-03-27T23:58:21.552Z,99.90
